createdAt,value
2023-02-05T00:01:36.674Z,12.25
2023-02-05T00:04:04.229Z,12.77
2023-02-05T00:06:31.288Z,15.77
2023-02-05T00:08:58.909Z,13.88
2023-02-05T00:11:26.580Z,10.85
2023-02-05T00:13:53.966Z,12.82
2023-02-05T00:16:23.646Z,13.00
2023-02-05T00:18:50.986Z,13.93
2023-02-05T00:21:21.921Z,12.80
2023-02-05T00:23:49.823Z,15.82
2023-02-05T00:26:17.590Z,18.83
2023-02-05T00:28:44.944Z,11.52
2023-02-05T00:31:16.905Z,10.93
2023-02-05T00:33:44.229Z,13.93
2023-02-05T00:36:12.981Z,14.70
2023-02-05T00:38:40.472Z,13.57
2023-02-05T00:41:07.676Z,17.67
2023-02-05T00:43:34.688Z,9.77
2023-02-05T00:46:01.789Z,12.38
2023-02-05T00:48:29.029Z,16.33
2023-02-05T00:50:56.119Z,15.18
2023-02-05T00:53:24.119Z,13.88
2023-02-05T00:55:51.483Z,13.13
2023-02-05T00:58:19.046Z,15.07
2023-02-05T01:00:46.385Z,11.57
2023-02-05T01:03:13.766Z,9.27
2023-02-05T01:05:41.212Z,10.45
2023-02-05T01:08:10.881Z,12.75
2023-02-05T01:10:42.757Z,12.25
2023-02-05T01:13:09.605Z,14.32
2023-02-05T01:15:36.760Z,13.40
2023-02-05T01:18:04.020Z,12.23
2023-02-05T01:20:31.004Z,13.55
2023-02-05T01:22:57.896Z,11.65
2023-02-05T01:25:24.879Z,13.40
2023-02-05T01:27:51.738Z,10.63
2023-02-05T01:30:18.773Z,10.40
2023-02-05T01:32:45.830Z,13.43
2023-02-05T01:35:13.166Z,11.77
2023-02-05T01:37:40.216Z,8.93
2023-02-05T01:40:07.493Z,13.25
2023-02-05T01:42:34.472Z,12.02
2023-02-05T01:45:23.862Z,13.18
2023-02-05T01:47:52.599Z,18.50
2023-02-05T01:50:31.448Z,14.45
2023-02-05T01:53:02.747Z,14.02
2023-02-05T01:55:30.958Z,17.15
2023-02-05T01:58:00.355Z,15.00
2023-02-05T02:00:27.463Z,15.18
2023-02-05T02:02:54.438Z,11.40
2023-02-05T02:05:21.438Z,12.15
2023-02-05T02:07:48.668Z,15.82
2023-02-05T02:10:18.439Z,12.65
2023-02-05T02:12:48.500Z,9.50
2023-02-05T02:15:19.487Z,16.67
2023-02-05T02:17:55.344Z,14.13
2023-02-05T02:20:26.904Z,10.38
2023-02-05T02:23:15.246Z,10.85
2023-02-05T02:25:42.172Z,10.95
2023-02-05T02:28:57.217Z,14.73
2023-02-05T02:32:01.560Z,10.30
2023-02-05T02:34:38.234Z,15.68
2023-02-05T02:37:18.956Z,14.32
2023-02-05T02:40:06.999Z,9.95
2023-02-05T02:42:55.356Z,13.70
2023-02-05T02:45:26.851Z,11.80
2023-02-05T02:47:57.273Z,15.02
2023-02-05T02:50:33.184Z,11.52
2023-02-05T02:53:04.815Z,14.40
2023-02-05T02:55:37.548Z,10.95
2023-02-05T02:58:08.969Z,14.75
2023-02-05T03:00:38.377Z,11.82
2023-02-05T03:03:08.574Z,16.05
2023-02-05T03:05:41.327Z,9.60
2023-02-05T03:08:14.128Z,11.63
2023-02-05T03:10:56.455Z,11.10
2023-02-05T03:13:31.823Z,12.23
2023-02-05T03:15:58.941Z,13.10
2023-02-05T03:18:26.093Z,18.08
2023-02-05T03:20:59.008Z,13.57
2023-02-05T03:23:28.135Z,11.98
2023-02-05T03:25:55.106Z,13.40
2023-02-05T03:28:22.705Z,15.20
2023-02-05T03:31:01.974Z,10.02
2023-02-05T03:33:49.536Z,9.85
2023-02-05T03:36:22.565Z,17.90
2023-02-05T03:39:02.854Z,12.00
2023-02-05T03:41:58.474Z,10.43
2023-02-05T03:44:51.726Z,11.45
2023-02-05T03:47:23.624Z,12.77
2023-02-05T03:50:09.534Z,11.27
2023-02-05T03:52:42.698Z,13.25
2023-02-05T03:55:22.387Z,11.15
2023-02-05T03:57:52.485Z,14.85
2023-02-05T04:00:19.795Z,8.90
2023-02-05T04:02:47.141Z,9.73
2023-02-05T04:05:14.257Z,11.55
2023-02-05T04:07:44.649Z,9.95
2023-02-05T04:10:11.609Z,12.45
2023-02-05T04:12:38.718Z,13.20
2023-02-05T04:15:09.246Z,12.90
2023-02-05T04:17:36.959Z,11.82
2023-02-05T04:20:05.299Z,12.43
2023-02-05T04:22:32.339Z,14.75
2023-02-05T04:24:59.152Z,14.60
2023-02-05T04:27:26.102Z,10.80
2023-02-05T04:29:52.921Z,10.88
2023-02-05T04:32:19.928Z,18.35
2023-02-05T04:34:46.905Z,10.30
2023-02-05T04:37:13.871Z,15.45
2023-02-05T04:39:40.775Z,11.18
2023-02-05T04:42:07.748Z,14.45
2023-02-05T04:44:34.633Z,17.02
2023-02-05T04:47:01.550Z,15.80
2023-02-05T04:49:28.587Z,16.60
2023-02-05T04:51:55.518Z,15.10
2023-02-05T04:54:22.497Z,17.67
2023-02-05T04:56:49.519Z,17.70
2023-02-05T04:59:16.682Z,16.05
2023-02-05T05:01:44.552Z,14.07
2023-02-05T05:04:11.696Z,17.00
2023-02-05T05:06:38.654Z,12.77
2023-02-05T05:09:05.543Z,17.33
2023-02-05T05:11:32.576Z,14.77
2023-02-05T05:13:59.579Z,15.07
2023-02-05T05:16:26.615Z,17.95
2023-02-05T05:18:53.635Z,21.77
2023-02-05T05:21:20.552Z,17.83
2023-02-05T05:23:47.471Z,17.73
2023-02-05T05:26:14.333Z,17.65
2023-02-05T05:28:41.384Z,19.60
2023-02-05T05:31:11.365Z,16.48
2023-02-05T05:33:38.467Z,16.45
2023-02-05T05:36:06.726Z,21.05
2023-02-05T05:38:33.576Z,17.67
2023-02-05T05:41:19.083Z,14.38
2023-02-05T05:43:49.128Z,13.50
2023-02-05T05:46:22.943Z,9.90
2023-02-05T05:49:08.073Z,8.10
2023-02-05T05:51:35.182Z,6.38
2023-02-05T05:54:02.343Z,10.43
2023-02-05T05:56:29.242Z,11.43
2023-02-05T05:58:56.541Z,5.03
2023-02-05T06:01:23.531Z,8.43
2023-02-05T06:03:50.946Z,6.88
2023-02-05T06:06:18.098Z,13.05
2023-02-05T06:08:45.194Z,4.80
2023-02-05T06:11:12.197Z,11.00
2023-02-05T06:13:39.306Z,8.30
2023-02-05T06:16:06.482Z,10.15
2023-02-05T06:18:33.743Z,8.38
2023-02-05T06:21:02.254Z,13.02
2023-02-05T06:23:29.218Z,12.48
2023-02-05T06:25:56.172Z,13.90
2023-02-05T06:28:23.045Z,11.68
2023-02-05T06:30:49.860Z,18.77
2023-02-05T06:33:17.122Z,11.48
2023-02-05T06:35:44.077Z,19.85
2023-02-05T06:38:10.932Z,19.30
2023-02-05T06:40:37.972Z,18.15
2023-02-05T06:43:04.918Z,18.00
2023-02-05T06:45:32.155Z,21.65
2023-02-05T06:47:59.628Z,12.45
2023-02-05T06:50:28.797Z,15.60
2023-02-05T06:52:55.898Z,14.65
2023-02-05T06:55:22.905Z,11.65
2023-02-05T06:57:49.884Z,17.75
2023-02-05T07:00:20.420Z,16.20
2023-02-05T07:02:50.643Z,12.88
2023-02-05T07:05:17.688Z,16.58
2023-02-05T07:07:45.902Z,9.77
2023-02-05T07:10:13.421Z,19.70
2023-02-05T07:12:43.260Z,14.40
2023-02-05T07:15:12.483Z,17.38
2023-02-05T07:17:41.917Z,12.75
2023-02-05T07:20:09.309Z,17.98
2023-02-05T07:22:41.885Z,14.80
2023-02-05T07:25:09.114Z,18.23
2023-02-05T07:27:35.939Z,15.23
2023-02-05T07:30:10.223Z,12.15
2023-02-05T07:32:37.256Z,18.83
2023-02-05T07:35:04.415Z,12.45
2023-02-05T07:37:31.236Z,12.20
2023-02-05T07:39:58.067Z,15.13
2023-02-05T07:42:24.902Z,13.60
2023-02-05T07:44:51.789Z,13.20
2023-02-05T07:47:18.670Z,16.50
2023-02-05T07:49:45.755Z,18.10
2023-02-05T07:52:12.852Z,13.07
2023-02-05T07:54:40.111Z,16.35
2023-02-05T07:57:07.178Z,17.52
2023-02-05T07:59:34.151Z,16.20
2023-02-05T08:02:01.009Z,21.15
2023-02-05T08:04:28.249Z,18.58
2023-02-05T08:06:55.245Z,15.52
2023-02-05T08:09:22.248Z,25.92
2023-02-05T08:11:53.619Z,17.98
2023-02-05T08:14:27.538Z,23.15
2023-02-05T08:17:04.658Z,19.77
2023-02-05T08:19:31.810Z,18.73
2023-02-05T08:21:58.618Z,10.95
2023-02-05T08:24:25.477Z,19.42
2023-02-05T08:26:52.559Z,13.20
2023-02-05T08:29:19.635Z,16.63
2023-02-05T08:31:46.526Z,14.80
2023-02-05T08:34:13.453Z,17.13
2023-02-05T08:36:40.355Z,15.23
2023-02-05T08:39:07.350Z,20.10
2023-02-05T08:41:34.680Z,14.90
2023-02-05T08:44:01.564Z,18.17
2023-02-05T08:46:37.443Z,19.63
2023-02-05T08:49:10.759Z,15.98
2023-02-05T08:51:37.628Z,22.00
2023-02-05T08:54:06.060Z,18.55
2023-02-05T08:56:33.053Z,25.17
2023-02-05T08:58:59.846Z,19.27
2023-02-05T09:01:27.230Z,17.25
2023-02-05T09:03:54.332Z,24.27
2023-02-05T09:06:21.384Z,20.83
2023-02-05T09:08:48.897Z,17.73
2023-02-05T09:11:26.793Z,20.73
2023-02-05T09:13:54.497Z,19.15
2023-02-05T09:16:21.662Z,17.30
2023-02-05T09:18:48.798Z,18.50
2023-02-05T09:21:15.747Z,24.63
2023-02-05T09:23:42.694Z,22.85
2023-02-05T09:26:09.651Z,14.48
2023-02-05T09:28:37.554Z,21.02
2023-02-05T09:31:14.126Z,21.77
2023-02-05T09:33:41.339Z,19.67
2023-02-05T09:36:17.094Z,24.58
2023-02-05T09:38:45.674Z,21.05
2023-02-05T09:41:26.197Z,26.58
2023-02-05T09:44:13.174Z,19.33
2023-02-05T09:47:05.882Z,16.35
2023-02-05T09:49:35.259Z,21.77
2023-02-05T09:52:17.891Z,28.38
2023-02-05T09:54:50.479Z,18.00
2023-02-05T09:57:28.813Z,20.45
2023-02-05T09:59:56.182Z,21.38
2023-02-05T10:02:30.523Z,25.02
2023-02-05T10:04:57.546Z,22.02
2023-02-05T10:07:30.454Z,21.50
2023-02-05T10:10:03.484Z,28.67
2023-02-05T10:12:50.611Z,23.48
2023-02-05T10:15:35.718Z,19.05
2023-02-05T10:18:21.177Z,22.17
2023-02-05T10:21:07.369Z,29.05
2023-02-05T10:23:49.427Z,21.92
2023-02-05T10:26:20.666Z,20.85
2023-02-05T10:29:05.075Z,22.83
2023-02-05T10:31:59.156Z,19.95
2023-02-05T10:34:57.042Z,24.63
2023-02-05T10:37:43.308Z,27.00
2023-02-05T10:40:15.831Z,19.20
2023-02-05T10:42:51.353Z,21.50
2023-02-05T10:45:27.922Z,22.33
2023-02-05T10:48:13.021Z,21.30
2023-02-05T10:51:04.595Z,24.05
2023-02-05T10:53:36.259Z,23.80
2023-02-05T10:56:04.809Z,21.90
2023-02-05T10:58:38.758Z,19.55
2023-02-05T11:01:15.211Z,23.05
2023-02-05T11:03:53.739Z,21.33
2023-02-05T11:06:24.437Z,21.80
2023-02-05T11:08:51.957Z,20.35
2023-02-05T11:11:40.113Z,18.80
2023-02-05T11:14:08.132Z,24.58
2023-02-05T11:16:45.558Z,21.83
2023-02-05T11:19:26.831Z,26.20
2023-02-05T11:22:02.176Z,21.02
2023-02-05T11:24:41.553Z,22.48
2023-02-05T11:27:27.007Z,21.65
2023-02-05T11:29:55.771Z,19.98
2023-02-05T11:32:37.727Z,24.52
2023-02-05T11:35:10.374Z,28.92
2023-02-05T11:37:40.514Z,18.98
2023-02-05T11:40:26.210Z,22.75
2023-02-05T11:43:05.196Z,22.85
2023-02-05T11:45:33.816Z,26.80
2023-02-05T11:48:03.362Z,18.88
2023-02-05T11:50:32.886Z,17.67
2023-02-05T11:53:16.537Z,17.08
2023-02-05T11:55:44.342Z,22.40
2023-02-05T11:58:36.479Z,18.60
2023-02-05T12:01:23.999Z,24.33
2023-02-05T12:04:16.630Z,15.95
2023-02-05T12:06:51.543Z,17.35
2023-02-05T12:09:24.398Z,18.95
2023-02-05T12:12:18.846Z,18.92
2023-02-05T12:15:16.516Z,17.02
2023-02-05T12:18:02.891Z,20.02
2023-02-05T12:20:42.400Z,20.30
2023-02-05T12:23:28.047Z,17.33
2023-02-05T12:26:22.025Z,23.98
2023-02-05T12:29:25.294Z,15.73
2023-02-05T12:32:00.972Z,25.00
2023-02-05T12:34:49.259Z,18.02
2023-02-05T12:37:18.844Z,24.73
2023-02-05T12:39:52.274Z,22.35
2023-02-05T12:42:37.480Z,25.30
2023-02-05T12:45:19.937Z,17.98
2023-02-05T12:48:08.030Z,24.75
2023-02-05T12:50:43.989Z,16.67
2023-02-05T12:53:43.264Z,15.07
2023-02-05T12:56:24.872Z,19.63
2023-02-05T12:59:06.867Z,23.88
2023-02-05T13:01:44.306Z,18.40
2023-02-05T13:04:29.754Z,20.27
2023-02-05T13:07:18.617Z,27.73
2023-02-05T13:09:54.044Z,23.50
2023-02-05T13:12:26.624Z,18.50
2023-02-05T13:15:21.739Z,25.33
2023-02-05T13:18:11.672Z,20.48
2023-02-05T13:21:01.810Z,23.25
2023-02-05T13:23:48.342Z,23.17
2023-02-05T13:26:35.952Z,18.17
2023-02-05T13:29:14.239Z,19.13
2023-02-05T13:31:48.424Z,23.50
2023-02-05T13:34:16.891Z,21.63
2023-02-05T13:37:13.161Z,20.60
2023-02-05T13:40:04.280Z,30.38
2023-02-05T13:43:09.574Z,17.83
2023-02-05T13:45:51.429Z,26.90
2023-02-05T13:48:57.550Z,19.38
2023-02-05T13:52:04.014Z,25.27
2023-02-05T13:54:58.494Z,18.77
2023-02-05T13:57:31.522Z,21.25
2023-02-05T13:59:59.338Z,18.63
2023-02-05T14:02:35.052Z,26.13
2023-02-05T14:05:04.102Z,24.35
2023-02-05T14:07:36.524Z,25.77
2023-02-05T14:10:04.216Z,21.52
2023-02-05T14:12:34.844Z,22.98
2023-02-05T14:15:20.101Z,17.33
2023-02-05T14:17:47.015Z,18.55
2023-02-05T14:20:26.198Z,19.85
2023-02-05T14:22:58.229Z,19.90
2023-02-05T14:25:42.763Z,19.25
2023-02-05T14:28:15.781Z,27.85
2023-02-05T14:30:53.990Z,16.92
2023-02-05T14:33:43.216Z,21.00
2023-02-05T14:36:17.125Z,22.88
2023-02-05T14:39:05.684Z,17.02
2023-02-05T14:41:44.310Z,14.38
2023-02-05T14:44:19.061Z,15.45
2023-02-05T14:47:04.329Z,22.80
2023-02-05T14:49:33.823Z,23.77
2023-02-05T14:52:04.026Z,17.52
2023-02-05T14:54:42.924Z,20.58
2023-02-05T14:57:25.320Z,24.90
2023-02-05T15:00:00.362Z,17.70
2023-02-05T15:03:04.794Z,23.23
2023-02-05T15:05:42.375Z,21.13
2023-02-05T15:08:18.693Z,25.95
2023-02-05T15:11:10.670Z,17.98
2023-02-05T15:13:37.563Z,17.17
2023-02-05T15:16:08.724Z,21.63
2023-02-05T15:18:51.826Z,23.08
2023-02-05T15:21:25.045Z,24.50
2023-02-05T15:24:13.895Z,20.10
2023-02-05T15:27:11.810Z,19.42
2023-02-05T15:29:45.422Z,19.77
2023-02-05T15:32:20.383Z,25.27
2023-02-05T15:34:55.499Z,27.73
2023-02-05T15:37:31.370Z,23.42
2023-02-05T15:40:18.867Z,20.33
2023-02-05T15:42:50.061Z,24.90
2023-02-05T15:45:26.196Z,27.73
2023-02-05T15:48:12.007Z,23.95
2023-02-05T15:50:58.085Z,21.08
2023-02-05T15:53:39.292Z,25.65
2023-02-05T15:56:32.874Z,14.23
2023-02-05T15:59:11.966Z,30.57
2023-02-05T16:01:51.229Z,25.02
2023-02-05T16:04:37.460Z,26.42
2023-02-05T16:07:22.316Z,24.80
2023-02-05T16:09:54.039Z,25.05
2023-02-05T16:12:21.209Z,17.15
2023-02-05T16:15:01.600Z,23.08
2023-02-05T16:17:44.672Z,22.40
2023-02-05T16:20:23.558Z,23.00
2023-02-05T16:22:59.042Z,23.67
2023-02-05T16:25:42.014Z,19.63
2023-02-05T16:28:23.619Z,24.75
2023-02-05T16:30:54.718Z,26.13
2023-02-05T16:33:30.783Z,28.75
2023-02-05T16:36:00.639Z,25.25
2023-02-05T16:38:28.349Z,27.05
2023-02-05T16:41:04.395Z,27.55
2023-02-05T16:43:41.063Z,22.35
2023-02-05T16:46:08.334Z,32.25
2023-02-05T16:48:39.430Z,27.42
2023-02-05T16:51:06.453Z,20.42
2023-02-05T16:53:36.647Z,27.40
2023-02-05T16:56:20.758Z,29.50
2023-02-05T16:58:57.514Z,22.75
2023-02-05T17:01:38.937Z,30.73
2023-02-05T17:04:06.450Z,24.75
2023-02-05T17:06:38.444Z,38.17
2023-02-05T17:09:05.885Z,29.42
2023-02-05T17:11:38.152Z,30.77
2023-02-05T17:14:31.714Z,31.42
2023-02-05T17:17:14.779Z,29.70
2023-02-05T17:19:41.836Z,30.52
2023-02-05T17:22:14.948Z,25.50
2023-02-05T17:24:48.055Z,28.50
2023-02-05T17:27:36.602Z,30.50
2023-02-05T17:30:06.950Z,33.35
2023-02-05T17:32:33.786Z,31.15
2023-02-05T17:35:00.624Z,25.90
2023-02-05T17:37:27.517Z,25.92
2023-02-05T17:39:55.678Z,28.75
2023-02-05T17:42:24.981Z,26.48
2023-02-05T17:44:53.374Z,41.10
2023-02-05T17:47:20.506Z,28.92
2023-02-05T17:49:47.892Z,36.63
2023-02-05T17:52:15.484Z,46.25
2023-02-05T17:54:42.932Z,30.95
2023-02-05T17:57:20.250Z,30.83
2023-02-05T17:59:48.575Z,34.00
2023-02-05T18:02:16.656Z,32.25
2023-02-05T18:04:49.164Z,27.48
2023-02-05T18:07:29.610Z,34.80
2023-02-05T18:09:57.308Z,29.20
2023-02-05T18:12:24.934Z,33.63
2023-02-05T18:14:51.807Z,32.92
2023-02-05T18:17:18.964Z,25.80
2023-02-05T18:19:46.266Z,29.50
2023-02-05T18:22:13.201Z,35.00
2023-02-05T18:24:40.059Z,28.23
2023-02-05T18:27:08.282Z,33.10
2023-02-05T18:29:36.055Z,36.25
2023-02-05T18:32:03.197Z,31.67
2023-02-05T18:34:30.490Z,34.90
2023-02-05T18:36:57.741Z,34.15
2023-02-05T18:39:28.593Z,39.33
2023-02-05T18:41:56.774Z,35.70
2023-02-05T18:44:24.524Z,36.60
2023-02-05T18:46:51.811Z,34.30
2023-02-05T18:49:19.027Z,38.53
2023-02-05T18:51:46.160Z,30.75
2023-02-05T18:54:13.212Z,35.38
2023-02-05T18:56:40.336Z,43.17
2023-02-05T18:59:11.028Z,28.42
2023-02-05T19:01:39.877Z,36.83
2023-02-05T19:04:10.450Z,35.53
2023-02-05T19:06:37.424Z,34.03
2023-02-05T19:09:04.591Z,38.72
2023-02-05T19:11:31.930Z,30.67
2023-02-05T19:14:04.820Z,29.30
2023-02-05T19:16:32.926Z,35.08
2023-02-05T19:18:59.972Z,35.20
2023-02-05T19:21:29.446Z,42.17
2023-02-05T19:23:58.634Z,44.20
2023-02-05T19:26:29.587Z,38.00
2023-02-05T19:29:01.976Z,34.80
2023-02-05T19:31:31.981Z,37.50
2023-02-05T19:34:00.227Z,32.38
2023-02-05T19:36:27.894Z,33.42
2023-02-05T19:38:54.879Z,34.65
2023-02-05T19:41:24.611Z,38.10
2023-02-05T19:43:55.890Z,35.65
2023-02-05T19:46:35.871Z,36.75
2023-02-05T19:49:05.939Z,37.55
2023-02-05T19:51:33.935Z,41.50
2023-02-05T19:54:03.557Z,45.00
2023-02-05T19:56:32.443Z,31.63
2023-02-05T19:59:00.138Z,38.20
2023-02-05T20:01:32.753Z,41.38
2023-02-05T20:04:12.142Z,36.85
2023-02-05T20:06:40.796Z,39.65
2023-02-05T20:09:10.883Z,22.92
2023-02-05T20:11:42.535Z,34.08
2023-02-05T20:14:10.651Z,36.45
2023-02-05T20:16:40.351Z,35.45
2023-02-05T20:19:10.378Z,49.35
2023-02-05T20:21:38.561Z,44.03
2023-02-05T20:24:05.589Z,43.13
2023-02-05T20:26:32.505Z,43.25
2023-02-05T20:29:17.940Z,27.00
2023-02-05T20:31:48.091Z,42.40
2023-02-05T20:34:22.656Z,38.03
2023-02-05T20:37:02.210Z,36.72
2023-02-05T20:39:30.523Z,32.67
2023-02-05T20:41:59.145Z,36.90
2023-02-05T20:44:32.355Z,41.78
2023-02-05T20:46:59.266Z,28.52
2023-02-05T20:49:26.408Z,35.92
2023-02-05T20:51:54.123Z,33.75
2023-02-05T20:54:22.320Z,30.50
2023-02-05T20:56:57.212Z,34.80
2023-02-05T20:59:24.764Z,37.65
2023-02-05T21:01:51.700Z,28.33
2023-02-05T21:04:21.234Z,39.05
2023-02-05T21:06:48.620Z,32.85
2023-02-05T21:09:16.748Z,33.65
2023-02-05T21:11:43.674Z,32.83
2023-02-05T21:14:10.584Z,36.65
2023-02-05T21:16:38.107Z,40.13
2023-02-05T21:19:07.429Z,36.40
2023-02-05T21:21:36.578Z,41.47
2023-02-05T21:24:09.526Z,39.25
2023-02-05T21:26:39.274Z,37.22
2023-02-05T21:29:12.596Z,35.50
2023-02-05T21:31:44.066Z,32.55
2023-02-05T21:34:17.777Z,43.35
2023-02-05T21:36:47.316Z,43.97
2023-02-05T21:39:17.604Z,39.60
2023-02-05T21:41:47.980Z,31.67
2023-02-05T21:44:15.283Z,29.58
2023-02-05T21:46:42.248Z,34.65
2023-02-05T21:49:10.673Z,31.90
2023-02-05T21:51:37.819Z,35.20
2023-02-05T21:54:06.026Z,31.25
2023-02-05T21:56:35.489Z,41.40
2023-02-05T21:59:09.371Z,39.50
2023-02-05T22:01:37.046Z,39.40
2023-02-05T22:04:10.659Z,33.63
2023-02-05T22:06:38.192Z,33.35
2023-02-05T22:09:08.041Z,30.88
2023-02-05T22:11:35.504Z,40.58
2023-02-05T22:14:02.551Z,35.08
2023-02-05T22:16:32.212Z,28.70
2023-02-05T22:19:00.008Z,42.95
2023-02-05T22:21:32.956Z,30.05
2023-02-05T22:24:01.943Z,34.97
2023-02-05T22:26:34.876Z,37.97
2023-02-05T22:29:04.533Z,34.10
2023-02-05T22:31:32.010Z,33.28
2023-02-05T22:33:59.589Z,39.35
2023-02-05T22:36:29.476Z,35.35
2023-02-05T22:38:56.666Z,38.80
2023-02-05T22:41:27.172Z,37.80
2023-02-05T22:43:55.742Z,38.60
2023-02-05T22:46:25.005Z,40.70
2023-02-05T22:48:52.843Z,38.90
2023-02-05T22:51:22.685Z,44.17
2023-02-05T22:53:50.094Z,37.90
2023-02-05T22:56:17.707Z,36.92
2023-02-05T22:58:49.534Z,36.03
2023-02-05T23:01:19.712Z,37.60
2023-02-05T23:03:49.334Z,42.17
2023-02-05T23:06:21.137Z,32.60
2023-02-05T23:09:15.560Z,32.85
2023-02-05T23:11:42.793Z,27.08
2023-02-05T23:14:10.772Z,36.17
2023-02-05T23:16:40.325Z,25.35
2023-02-05T23:19:11.601Z,44.88
2023-02-05T23:21:40.384Z,32.45
2023-02-05T23:24:08.347Z,35.83
2023-02-05T23:26:39.990Z,38.53
2023-02-05T23:29:07.764Z,32.55
2023-02-05T23:31:35.150Z,38.28
2023-02-05T23:34:02.469Z,28.38
2023-02-05T23:36:29.498Z,38.40
2023-02-05T23:38:56.540Z,38.25
2023-02-05T23:41:35.507Z,47.95
2023-02-05T23:44:09.988Z,42.35
2023-02-05T23:46:38.404Z,52.13
2023-02-05T23:49:05.812Z,40.30
2023-02-05T23:51:33.909Z,37.80
2023-02-05T23:54:00.900Z,39.10
2023-02-05T23:56:27.800Z,45.17
2023-02-05T23:58:55.053Z,26.08
